createdAt,value
2022-10-21T00:01:12.244Z,13.90
2022-10-21T00:06:10.462Z,13.90
2022-10-21T00:08:40.246Z,13.90
2022-10-21T00:11:10.581Z,13.90
2022-10-21T00:13:40.748Z,13.90
2022-10-21T00:16:12.171Z,13.80
2022-10-21T00:18:43.260Z,13.80
2022-10-21T00:21:15.393Z,13.80
2022-10-21T00:23:44.327Z,13.80
2022-10-21T00:26:13.768Z,13.80
2022-10-21T00:28:43.873Z,13.70
2022-10-21T00:31:14.769Z,13.80
2022-10-21T00:33:43.619Z,13.80
2022-10-21T00:36:15.149Z,13.80
2022-10-21T00:38:46.168Z,13.80
2022-10-21T00:41:16.575Z,13.80
2022-10-21T00:43:58.376Z,13.80
2022-10-21T00:46:36.603Z,13.90
2022-10-21T00:49:13.227Z,14.00
2022-10-21T00:54:11.528Z,14.20
2022-10-21T00:56:42.743Z,14.20
2022-10-21T00:59:12.987Z,14.30
2022-10-21T01:11:43.333Z,14.30
2022-10-21T01:14:47.108Z,14.30
2022-10-21T01:17:44.030Z,14.20
2022-10-21T01:20:59.168Z,14.20
2022-10-21T01:24:37.280Z,14.20
2022-10-21T01:27:39.419Z,14.20
2022-10-21T01:30:42.932Z,14.10
2022-10-21T01:33:39.855Z,14.10
2022-10-21T01:36:22.940Z,14.10
2022-10-21T01:39:06.529Z,14.10
2022-10-21T01:41:42.541Z,14.10
2022-10-21T01:44:22.076Z,14.10
2022-10-21T01:46:58.793Z,14.10
2022-10-21T01:49:33.207Z,14.10
2022-10-21T01:52:03.387Z,14.10
2022-10-21T01:54:36.280Z,14.10
2022-10-21T01:57:07.493Z,14.00
2022-10-21T01:59:37.413Z,14.00
2022-10-21T02:02:09.956Z,14.00
2022-10-21T02:04:42.377Z,14.00
2022-10-21T02:07:11.442Z,14.00
2022-10-21T02:12:10.471Z,13.90
2022-10-21T02:14:43.443Z,13.90
2022-10-21T02:17:17.332Z,13.90
2022-10-21T02:22:21.379Z,13.90
2022-10-21T02:24:54.752Z,13.90
2022-10-21T02:27:24.180Z,13.90
2022-10-21T02:29:58.716Z,13.80
2022-10-21T02:32:37.912Z,13.80
2022-10-21T02:35:23.077Z,13.80
2022-10-21T02:38:00.855Z,13.80
2022-10-21T02:40:35.403Z,13.80
2022-10-21T02:43:10.313Z,13.80
2022-10-21T02:45:40.529Z,13.80
2022-10-21T02:48:10.129Z,13.80
2022-10-21T02:50:38.389Z,13.80
2022-10-21T03:12:56.864Z,13.70
2022-10-21T03:22:53.113Z,13.60
2022-10-21T03:27:51.276Z,13.60
2022-10-21T03:40:15.496Z,13.60
2022-10-21T03:45:12.768Z,13.60
2022-10-21T03:50:13.960Z,13.70
2022-10-21T03:55:14.857Z,13.70
2022-10-21T04:00:14.404Z,13.70
2022-10-21T04:05:12.291Z,13.70
2022-10-21T04:10:11.605Z,13.80
2022-10-21T04:12:41.480Z,13.70
2022-10-21T04:15:13.637Z,13.70
2022-10-21T04:20:12.201Z,13.70
2022-10-21T04:30:10.404Z,13.70
2022-10-21T04:40:10.477Z,13.60
2022-10-21T04:45:10.111Z,13.60
2022-10-21T04:50:08.034Z,13.60
2022-10-21T04:52:36.592Z,13.50
2022-10-21T04:55:06.801Z,13.60
2022-10-21T04:57:35.141Z,13.50
2022-10-21T05:00:06.732Z,13.50
2022-10-21T05:10:02.589Z,13.50
2022-10-21T05:17:30.142Z,13.40
2022-10-21T05:24:55.364Z,13.40
2022-10-21T05:27:23.574Z,13.40
2022-10-21T05:34:50.232Z,13.70
2022-10-21T05:39:47.372Z,13.40
2022-10-21T05:42:15.687Z,13.40
2022-10-21T05:52:10.787Z,13.50
2022-10-21T05:54:39.034Z,13.50
2022-10-21T05:59:35.735Z,13.60
2022-10-21T06:02:04.230Z,13.60
2022-10-21T06:09:37.688Z,13.60
2022-10-21T06:12:07.447Z,13.70
2022-10-21T06:17:05.632Z,13.70
2022-10-21T06:19:34.076Z,13.70
2022-10-21T06:27:00.940Z,13.80
2022-10-21T06:44:41.717Z,13.80
2022-10-21T06:47:10.246Z,13.80
2022-10-21T06:54:35.820Z,13.80
2022-10-21T06:57:05.314Z,13.80
2022-10-21T07:02:03.480Z,13.80
2022-10-21T07:09:30.812Z,13.70
2022-10-21T07:12:01.314Z,13.70
2022-10-21T07:14:29.934Z,13.70
2022-10-21T07:19:28.513Z,13.70
2022-10-21T07:21:56.713Z,13.80
2022-10-21T07:29:22.489Z,13.80
2022-10-21T07:34:19.543Z,13.90
2022-10-21T07:36:52.730Z,14.00
2022-10-21T07:39:25.472Z,14.00
2022-10-21T07:41:56.549Z,14.00
2022-10-21T07:44:26.762Z,14.10
2022-10-21T07:46:55.611Z,14.10
2022-10-21T07:49:24.962Z,14.10
2022-10-21T07:51:54.519Z,14.20
2022-10-21T07:54:23.600Z,14.20
2022-10-21T07:56:53.093Z,14.20
2022-10-21T07:59:23.474Z,14.30
2022-10-21T08:01:53.104Z,14.30
2022-10-21T08:04:24.894Z,14.30
2022-10-21T08:06:54.532Z,14.30
2022-10-21T08:16:53.750Z,14.40
2022-10-21T08:19:29.417Z,14.50
2022-10-21T08:22:00.811Z,14.50
2022-10-21T08:24:29.442Z,14.50
2022-10-21T08:36:52.765Z,14.60
2022-10-21T08:39:24.909Z,14.60
2022-10-21T08:42:18.434Z,14.60
2022-10-21T08:44:54.965Z,14.60
2022-10-21T08:47:33.159Z,14.60
2022-10-21T08:50:06.433Z,14.70
2022-10-21T08:52:44.628Z,14.70
2022-10-21T08:55:24.053Z,14.70
2022-10-21T08:57:54.642Z,14.70
2022-10-21T09:00:25.914Z,14.70
2022-10-21T09:03:09.007Z,14.80
2022-10-21T09:06:14.982Z,14.80
2022-10-21T09:08:56.566Z,14.80
2022-10-21T09:11:44.070Z,14.80
2022-10-21T09:14:58.714Z,14.80
2022-10-21T09:17:57.445Z,14.80
2022-10-21T09:20:45.773Z,14.90
2022-10-21T09:23:44.737Z,14.90
2022-10-21T09:26:34.504Z,14.90
2022-10-21T09:29:16.687Z,14.90
2022-10-21T09:31:47.791Z,14.90
2022-10-21T09:34:23.716Z,14.90
2022-10-21T09:36:54.717Z,14.90
2022-10-21T09:39:33.705Z,14.90
2022-10-21T09:42:07.349Z,14.90
2022-10-21T09:47:21.795Z,14.90
2022-10-21T09:50:06.909Z,14.90
2022-10-21T09:52:38.905Z,14.90
2022-10-21T09:55:14.468Z,14.90
2022-10-21T09:57:52.523Z,14.90
2022-10-21T10:02:50.326Z,14.90
2022-10-21T10:05:42.167Z,14.90
2022-10-21T10:08:40.142Z,15.00
2022-10-21T10:11:18.835Z,15.00
2022-10-21T10:13:50.937Z,15.00
2022-10-21T10:16:27.545Z,15.00
2022-10-21T10:19:17.510Z,15.00
2022-10-21T10:21:48.180Z,15.00
2022-10-21T10:24:20.109Z,15.10
2022-10-21T10:26:49.788Z,15.10
2022-10-21T10:29:27.725Z,15.10
2022-10-21T10:31:59.430Z,15.10
2022-10-21T10:34:34.561Z,15.10
2022-10-21T10:37:09.072Z,15.10
2022-10-21T10:39:40.840Z,15.20
2022-10-21T10:42:09.500Z,15.20
2022-10-21T10:44:44.524Z,15.20
2022-10-21T10:47:21.800Z,15.20
2022-10-21T10:49:51.639Z,15.30
2022-10-21T10:52:24.169Z,17.80
2022-10-21T10:55:19.352Z,15.30
2022-10-21T10:58:06.090Z,15.40
2022-10-21T11:00:45.840Z,15.40
2022-10-21T11:03:26.074Z,15.40
2022-10-21T11:06:02.348Z,15.50
2022-10-21T11:08:37.223Z,15.50
2022-10-21T11:11:11.827Z,15.50
2022-10-21T11:16:59.013Z,15.70
2022-10-21T11:19:40.558Z,15.80
2022-10-21T11:22:16.340Z,15.90
2022-10-21T11:25:12.409Z,16.00
2022-10-21T11:28:04.106Z,16.00
2022-10-21T11:30:47.827Z,16.30
2022-10-21T11:33:29.108Z,16.60
2022-10-21T11:36:08.010Z,16.80
2022-10-21T11:39:31.734Z,16.90
2022-10-21T11:42:10.040Z,16.80
2022-10-21T11:44:53.916Z,16.80
2022-10-21T11:47:29.600Z,16.90
2022-10-21T11:50:13.004Z,17.20
2022-10-21T11:52:57.688Z,17.50
2022-10-21T11:55:39.769Z,17.60
2022-10-21T11:58:33.744Z,17.60
2022-10-21T12:01:25.412Z,17.80
2022-10-21T12:04:22.459Z,18.00
2022-10-21T12:07:11.018Z,18.00
2022-10-21T12:09:46.324Z,17.90
2022-10-21T12:12:18.668Z,17.90
2022-10-21T12:14:53.767Z,18.10
2022-10-21T12:17:23.855Z,18.40
2022-10-21T12:19:59.068Z,18.40
2022-10-21T12:22:33.069Z,18.30
2022-10-21T12:25:20.829Z,18.30
2022-10-21T12:27:55.930Z,18.50
2022-10-21T12:30:33.783Z,18.60
2022-10-21T12:33:16.890Z,18.80
2022-10-21T12:35:53.175Z,19.00
2022-10-21T12:38:43.785Z,19.10
2022-10-21T12:41:34.218Z,19.20
2022-10-21T12:44:24.864Z,19.50
2022-10-21T12:46:56.778Z,19.70
2022-10-21T12:49:36.419Z,19.70
2022-10-21T12:52:13.862Z,19.80
2022-10-21T12:54:56.880Z,19.70
2022-10-21T12:57:29.689Z,19.50
2022-10-21T13:00:51.054Z,19.40
2022-10-21T13:03:22.820Z,19.50
2022-10-21T13:06:07.039Z,19.70
2022-10-21T13:08:51.653Z,19.80
2022-10-21T13:11:40.470Z,19.90
2022-10-21T13:14:35.345Z,20.10
2022-10-21T13:17:48.932Z,20.30
2022-10-21T13:20:47.033Z,20.30
2022-10-21T13:23:37.863Z,20.30
2022-10-21T13:26:19.979Z,20.40
2022-10-21T13:29:16.550Z,20.50
2022-10-21T13:31:45.372Z,20.20
2022-10-21T13:34:29.417Z,20.00
2022-10-21T13:39:34.501Z,19.30
2022-10-21T13:42:06.529Z,19.10
2022-10-21T13:44:39.744Z,18.80
2022-10-21T13:47:30.627Z,18.60
2022-10-21T13:50:11.661Z,18.40
2022-10-21T13:55:20.605Z,18.20
2022-10-21T13:57:51.357Z,18.10
2022-10-21T14:00:25.173Z,18.00
2022-10-21T14:03:00.631Z,17.90
2022-10-21T14:05:37.793Z,17.90
2022-10-21T14:08:18.274Z,17.90
2022-10-21T14:10:48.443Z,17.90
2022-10-21T14:13:20.583Z,18.00
2022-10-21T14:15:50.811Z,18.00
2022-10-21T14:18:34.925Z,18.00
2022-10-21T14:21:07.423Z,18.00
2022-10-21T14:23:36.425Z,18.00
2022-10-21T14:26:09.705Z,18.00
2022-10-21T14:28:38.937Z,18.00
2022-10-21T14:31:12.411Z,18.00
2022-10-21T14:33:43.345Z,18.00
2022-10-21T14:36:20.325Z,18.00
2022-10-21T14:39:00.402Z,18.00
2022-10-21T14:41:35.504Z,17.90
2022-10-21T14:44:14.486Z,17.90
2022-10-21T14:46:47.275Z,17.80
2022-10-21T14:49:26.489Z,17.80
2022-10-21T14:52:01.106Z,17.70
2022-10-21T14:54:41.764Z,17.70
2022-10-21T14:57:33.199Z,17.70
2022-10-21T15:00:03.370Z,17.70
2022-10-21T15:02:37.156Z,17.60
2022-10-21T15:05:26.656Z,17.60
2022-10-21T15:08:17.014Z,17.50
2022-10-21T15:10:45.450Z,17.50
2022-10-21T15:13:18.280Z,17.50
2022-10-21T15:15:53.223Z,17.50
2022-10-21T15:18:29.245Z,17.40
2022-10-21T15:21:00.204Z,17.40
2022-10-21T15:23:32.967Z,16.10
2022-10-21T15:26:06.003Z,17.30
2022-10-21T15:28:36.499Z,17.20
2022-10-21T15:31:09.241Z,17.20
2022-10-21T15:33:38.864Z,17.20
2022-10-21T15:36:09.819Z,17.10
2022-10-21T15:41:16.218Z,17.00
2022-10-21T15:43:58.267Z,17.00
2022-10-21T15:46:27.173Z,17.00
2022-10-21T15:48:57.985Z,16.90
2022-10-21T15:51:26.384Z,16.90
2022-10-21T15:53:54.582Z,16.90
2022-10-21T15:56:24.277Z,16.90
2022-10-21T15:58:52.460Z,16.90
2022-10-21T16:03:49.435Z,16.80
2022-10-21T16:06:21.715Z,16.70
2022-10-21T16:08:51.667Z,16.70
2022-10-21T16:11:34.642Z,16.70
2022-10-21T16:14:10.198Z,16.70
2022-10-21T16:16:41.723Z,16.60
2022-10-21T16:19:10.901Z,16.60
2022-10-21T16:21:41.085Z,16.60
2022-10-21T16:24:09.559Z,16.60
2022-10-21T16:26:42.413Z,16.50
2022-10-21T16:29:13.848Z,16.50
2022-10-21T16:31:42.084Z,16.50
2022-10-21T16:34:10.299Z,16.40
2022-10-21T16:39:14.786Z,16.40
2022-10-21T16:41:43.156Z,16.40
2022-10-21T16:46:42.682Z,16.30
2022-10-21T16:49:15.320Z,16.30
2022-10-21T16:51:46.876Z,16.20
2022-10-21T17:01:41.588Z,16.20
2022-10-21T17:04:14.210Z,16.10
2022-10-21T17:09:12.490Z,16.10
2022-10-21T17:11:42.499Z,16.10
2022-10-21T17:14:16.102Z,16.10
2022-10-21T17:16:45.239Z,17.80
2022-10-21T17:19:13.943Z,16.00
2022-10-21T17:21:44.055Z,16.00
2022-10-21T17:24:17.595Z,16.00
2022-10-21T17:26:46.361Z,15.90
2022-10-21T17:31:44.713Z,15.90
2022-10-21T17:34:26.840Z,15.90
2022-10-21T17:36:57.035Z,15.90
2022-10-21T17:41:54.018Z,15.80
2022-10-21T17:44:22.860Z,15.80
2022-10-21T17:49:23.255Z,15.80
2022-10-21T17:54:26.100Z,15.70
2022-10-21T17:59:26.704Z,15.70
2022-10-21T18:01:54.931Z,15.70
2022-10-21T18:04:23.157Z,15.70
2022-10-21T18:06:51.351Z,15.70
2022-10-21T18:09:20.984Z,15.60
2022-10-21T18:24:12.799Z,15.50
2022-10-21T18:26:42.594Z,15.50
2022-10-21T18:29:10.808Z,15.40
2022-10-21T18:31:39.975Z,15.40
2022-10-21T18:34:09.331Z,15.40
2022-10-21T18:39:06.940Z,15.40
2022-10-21T18:41:36.160Z,15.30
2022-10-21T18:44:08.950Z,15.40
2022-10-21T18:46:39.884Z,15.30
2022-10-21T18:49:11.716Z,15.30
2022-10-21T18:51:40.240Z,15.30
2022-10-21T18:56:37.038Z,15.20
2022-10-21T18:59:07.018Z,15.20
2022-10-21T19:01:35.335Z,15.20
2022-10-21T19:06:39.621Z,15.20
2022-10-21T19:09:12.954Z,15.20
2022-10-21T19:14:14.351Z,15.20
2022-10-21T19:16:43.696Z,15.20
2022-10-21T19:21:41.968Z,15.20
2022-10-21T19:24:11.646Z,15.20
2022-10-21T19:26:42.155Z,15.20
2022-10-21T19:29:16.168Z,15.20
2022-10-21T19:34:20.992Z,15.20
2022-10-21T19:36:49.376Z,15.20
2022-10-21T19:39:17.973Z,15.20
2022-10-21T19:41:46.340Z,15.20
2022-10-21T19:44:16.053Z,15.30
2022-10-21T19:46:44.620Z,15.30
2022-10-21T19:49:15.328Z,15.30
2022-10-21T19:54:13.882Z,15.30
2022-10-21T19:56:42.615Z,15.40
2022-10-21T19:59:11.847Z,15.40
2022-10-21T20:01:41.548Z,15.30
2022-10-21T20:04:09.930Z,15.40
2022-10-21T20:06:39.388Z,15.30
2022-10-21T20:09:10.485Z,15.20
2022-10-21T20:11:40.444Z,15.20
2022-10-21T20:16:42.315Z,15.10
2022-10-21T20:19:13.314Z,15.10
2022-10-21T20:24:14.220Z,15.00
2022-10-21T20:26:44.391Z,15.00
2022-10-21T20:31:42.781Z,14.90
2022-10-21T20:34:13.583Z,14.90
2022-10-21T20:41:40.174Z,14.80
2022-10-21T20:44:12.225Z,14.80
2022-10-21T20:49:11.236Z,14.80
2022-10-21T20:51:43.064Z,14.80
2022-10-21T20:54:15.072Z,14.80
2022-10-21T20:56:44.484Z,14.70
2022-10-21T20:59:15.839Z,14.80
2022-10-21T21:01:47.652Z,14.80
2022-10-21T21:04:20.554Z,14.80
2022-10-21T21:06:50.763Z,14.80
2022-10-21T21:09:43.701Z,14.80
2022-10-21T21:17:08.288Z,14.70
2022-10-21T21:19:36.551Z,14.70
2022-10-21T21:24:33.546Z,14.70
2022-10-21T21:34:29.103Z,14.70
2022-10-21T21:51:49.956Z,14.80
2022-10-21T21:54:18.350Z,14.80
2022-10-21T21:56:46.942Z,14.80
2022-10-21T22:06:40.928Z,14.90
2022-10-21T22:09:11.956Z,14.90
2022-10-21T22:11:40.508Z,14.90
2022-10-21T22:21:34.815Z,15.00
2022-10-21T22:26:32.964Z,15.00
2022-10-21T22:34:01.252Z,15.00
2022-10-21T22:41:27.847Z,15.00
2022-10-21T22:43:57.395Z,15.00
2022-10-21T22:46:40.947Z,15.00
2022-10-21T22:59:22.569Z,15.00
2022-10-21T23:01:50.809Z,15.00
2022-10-21T23:04:19.050Z,15.00
2022-10-21T23:06:47.313Z,15.00
2022-10-21T23:11:44.238Z,15.00
2022-10-21T23:16:42.367Z,15.00
2022-10-21T23:26:39.365Z,14.90
2022-10-21T23:31:36.210Z,14.90
2022-10-21T23:34:06.096Z,14.90
2022-10-21T23:36:35.441Z,14.90
2022-10-21T23:41:32.723Z,14.90
2022-10-21T23:51:28.187Z,15.00
2022-10-21T23:56:25.085Z,15.00
